createdAt,value
2023-03-07T17:58:21.047Z,15.60
2023-03-07T18:01:11.332Z,15.50
2023-03-07T18:04:00.966Z,15.77
2023-03-07T18:06:49.644Z,16.03
2023-03-07T18:09:38.571Z,15.47
2023-03-07T18:12:27.151Z,15.87
2023-03-07T18:15:19.449Z,15.73
2023-03-07T18:18:08.129Z,15.60
2023-03-07T18:20:59.856Z,16.47
2023-03-07T18:23:49.107Z,16.20
2023-03-07T18:26:37.787Z,15.53
2023-03-07T18:29:28.983Z,14.93
2023-03-07T18:32:19.594Z,15.80
2023-03-07T18:35:09.540Z,15.23
2023-03-07T18:37:59.874Z,15.80
2023-03-07T18:40:49.100Z,15.83
2023-03-07T18:43:37.864Z,14.73
2023-03-07T18:46:31.064Z,14.73
2023-03-07T18:49:21.124Z,15.17
2023-03-07T18:52:10.085Z,13.77
2023-03-07T18:54:58.844Z,14.83
2023-03-07T18:57:47.606Z,14.10
2023-03-07T19:00:36.393Z,14.23
2023-03-07T19:03:25.165Z,13.57
2023-03-07T19:06:17.636Z,13.47
2023-03-07T19:09:06.465Z,13.57
2023-03-07T19:11:55.485Z,13.10
2023-03-07T19:14:44.173Z,13.13
2023-03-07T19:17:33.267Z,12.97
2023-03-07T19:20:22.150Z,13.43
2023-03-07T19:23:17.661Z,13.03
2023-03-07T19:26:08.159Z,13.13
2023-03-07T19:28:57.552Z,12.93
2023-03-07T19:31:46.375Z,12.50
2023-03-07T19:34:35.209Z,12.53
2023-03-07T19:37:24.065Z,12.57
2023-03-07T19:40:15.566Z,12.33
2023-03-07T19:43:04.224Z,11.40
2023-03-07T19:45:53.635Z,12.23
2023-03-07T19:48:43.482Z,12.00
2023-03-07T19:51:32.302Z,11.97
2023-03-07T19:54:22.677Z,11.57
2023-03-07T19:57:15.127Z,12.43
2023-03-07T20:00:04.468Z,11.90
2023-03-07T20:03:01.061Z,11.37
2023-03-07T20:05:50.485Z,12.20
2023-03-07T20:08:39.239Z,12.10
2023-03-07T20:11:29.839Z,11.20
2023-03-07T20:14:19.917Z,11.50
2023-03-07T20:17:08.679Z,11.40
2023-03-07T20:19:58.281Z,11.67
2023-03-07T20:22:50.990Z,11.57
2023-03-07T20:25:39.730Z,11.23
2023-03-07T20:28:28.397Z,11.00
2023-03-07T20:31:18.949Z,11.37
2023-03-07T20:34:08.439Z,10.60
2023-03-07T20:36:57.244Z,9.97
2023-03-07T20:39:46.232Z,10.43
2023-03-07T20:42:34.974Z,10.43
2023-03-07T20:45:23.648Z,10.27
2023-03-07T20:48:14.077Z,10.47
2023-03-07T20:51:06.836Z,10.03
2023-03-07T20:53:57.774Z,10.67
2023-03-07T20:56:47.629Z,9.80
2023-03-07T20:59:36.287Z,10.20
2023-03-07T21:02:24.944Z,9.67
2023-03-07T21:05:15.555Z,9.47
2023-03-07T21:08:04.507Z,9.97
2023-03-07T21:11:00.128Z,10.50
2023-03-07T21:13:50.495Z,9.23
2023-03-07T21:16:39.339Z,9.10
2023-03-07T21:19:28.235Z,9.30
2023-03-07T21:22:18.319Z,10.53
2023-03-07T21:25:11.434Z,9.77
2023-03-07T21:28:00.219Z,9.20
2023-03-07T21:30:49.716Z,9.97
2023-03-07T21:33:38.762Z,9.60
2023-03-07T21:36:29.462Z,9.57
2023-03-07T21:39:19.532Z,9.70
2023-03-07T21:42:08.285Z,9.70
2023-03-07T21:44:56.910Z,9.13
2023-03-07T21:47:45.809Z,9.03
2023-03-07T21:50:35.115Z,9.67
2023-03-07T21:53:23.801Z,9.67
2023-03-07T21:56:17.228Z,9.40
2023-03-07T21:59:06.062Z,9.43
2023-03-07T22:01:55.065Z,9.70
2023-03-07T22:04:43.817Z,9.37
2023-03-07T22:07:33.061Z,9.27
2023-03-07T22:10:21.909Z,9.60
2023-03-07T22:13:12.349Z,9.20
2023-03-07T22:16:03.295Z,9.43
2023-03-07T22:18:55.958Z,9.20
2023-03-07T22:21:44.671Z,9.17
2023-03-07T22:24:33.877Z,9.40
2023-03-07T22:27:22.510Z,7.93
2023-03-07T22:30:13.939Z,7.90
2023-03-07T22:33:03.318Z,7.47
2023-03-07T22:35:57.764Z,7.10
2023-03-07T22:38:46.466Z,6.73
2023-03-07T22:41:35.610Z,6.73
2023-03-07T22:44:24.281Z,5.80
2023-03-07T22:47:14.426Z,4.07
2023-03-07T22:50:03.386Z,2.37
2023-03-07T22:52:54.546Z,2.67
2023-03-07T22:55:43.887Z,2.00
2023-03-07T22:58:32.540Z,1.90
2023-03-07T23:01:23.839Z,1.60
2023-03-07T23:04:14.816Z,1.67
2023-03-07T23:07:04.225Z,1.50
2023-03-07T23:09:52.945Z,1.40
2023-03-07T23:12:41.723Z,1.70
2023-03-07T23:15:30.457Z,1.83
2023-03-07T23:18:19.386Z,1.70
2023-03-07T23:21:15.781Z,1.90
2023-03-07T23:24:05.085Z,1.87
2023-03-07T23:26:53.722Z,1.67
2023-03-07T23:29:42.766Z,2.07
2023-03-07T23:32:32.089Z,2.00
2023-03-07T23:35:20.798Z,1.90
2023-03-07T23:38:14.241Z,1.93
2023-03-07T23:41:03.208Z,1.80
2023-03-07T23:43:52.915Z,2.23
2023-03-07T23:46:41.696Z,2.00
2023-03-07T23:49:30.467Z,2.07
2023-03-07T23:52:19.459Z,1.83
2023-03-07T23:55:12.745Z,2.10
2023-03-07T23:58:01.438Z,2.13
